sensor_id;sensor_type;location;lat;lon;timestamp;P1;durP1;ratioP1;P2;durP2;ratioP2
13698;SDS011;6921;53.642;9.956;2023-07-28T00:00:25;9.80;;;8.73;;
13698;SDS011;6921;53.642;9.956;2023-07-28T00:02:28;9.77;;;8.77;;
13698;SDS011;6921;53.642;9.956;2023-07-28T00:04:31;9.40;;;8.50;;
13698;SDS011;6921;53.642;9.956;2023-07-28T00:06:37;9.52;;;8.57;;
13698;SDS011;6921;53.642;9.956;2023-07-28T00:08:41;10.35;;;9.25;;
13698;SDS011;6921;53.642;9.956;2023-07-28T00:10:44;10.38;;;8.95;;
13698;SDS011;6921;53.642;9.956;2023-07-28T00:12:47;10.18;;;8.85;;
13698;SDS011;6921;53.642;9.956;2023-07-28T00:14:50;10.73;;;9.50;;
13698;SDS011;6921;53.642;9.956;2023-07-28T00:16:53;11.27;;;9.80;;
13698;SDS011;6921;53.642;9.956;2023-07-28T00:18:57;10.27;;;8.65;;
13698;SDS011;6921;53.642;9.956;2023-07-28T00:21:00;10.30;;;8.85;;
13698;SDS011;6921;53.642;9.956;2023-07-28T00:23:05;10.35;;;9.25;;
13698;SDS011;6921;53.642;9.956;2023-07-28T00:25:08;9.55;;;8.60;;
13698;SDS011;6921;53.642;9.956;2023-07-28T00:27:11;9.95;;;8.95;;
13698;SDS011;6921;53.642;9.956;2023-07-28T00:29:16;11.13;;;9.60;;
13698;SDS011;6921;53.642;9.956;2023-07-28T00:31:18;11.40;;;9.43;;
13698;SDS011;6921;53.642;9.956;2023-07-28T00:33:21;11.07;;;9.60;;
13698;SDS011;6921;53.642;9.956;2023-07-28T00:35:23;10.02;;;8.98;;
13698;SDS011;6921;53.642;9.956;2023-07-28T00:37:26;10.90;;;9.02;;
13698;SDS011;6921;53.642;9.956;2023-07-28T00:39:30;9.88;;;8.88;;
13698;SDS011;6921;53.642;9.956;2023-07-28T00:41:33;10.05;;;9.02;;
13698;SDS011;6921;53.642;9.956;2023-07-28T00:43:36;9.93;;;8.93;;
13698;SDS011;6921;53.642;9.956;2023-07-28T00:45:39;10.23;;;9.20;;
13698;SDS011;6921;53.642;9.956;2023-07-28T00:47:43;9.82;;;8.82;;
13698;SDS011;6921;53.642;9.956;2023-07-28T00:49:47;9.57;;;8.65;;
13698;SDS011;6921;53.642;9.956;2023-07-28T00:51:50;10.10;;;9.10;;
13698;SDS011;6921;53.642;9.956;2023-07-28T00:53:53;10.63;;;9.18;;
13698;SDS011;6921;53.642;9.956;2023-07-28T00:55:57;10.57;;;9.50;;
13698;SDS011;6921;53.642;9.956;2023-07-28T00:58:00;9.60;;;8.48;;
13698;SDS011;6921;53.642;9.956;2023-07-28T01:00:03;10.45;;;9.32;;
13698;SDS011;6921;53.642;9.956;2023-07-28T01:02:07;10.98;;;9.25;;
13698;SDS011;6921;53.642;9.956;2023-07-28T01:04:10;10.98;;;8.93;;
13698;SDS011;6921;53.642;9.956;2023-07-28T01:06:14;9.95;;;8.95;;
13698;SDS011;6921;53.642;9.956;2023-07-28T01:08:24;11.32;;;8.73;;
13698;SDS011;6921;53.642;9.956;2023-07-28T01:10:31;10.48;;;9.40;;
13698;SDS011;6921;53.642;9.956;2023-07-28T01:12:36;10.57;;;9.48;;
13698;SDS011;6921;53.642;9.956;2023-07-28T01:14:39;10.18;;;9.10;;
13698;SDS011;6921;53.642;9.956;2023-07-28T01:16:42;9.80;;;8.80;;
13698;SDS011;6921;53.642;9.956;2023-07-28T01:18:45;10.18;;;9.18;;
13698;SDS011;6921;53.642;9.956;2023-07-28T01:20:49;10.13;;;9.13;;
13698;SDS011;6921;53.642;9.956;2023-07-28T01:23:02;9.63;;;8.63;;
13698;SDS011;6921;53.642;9.956;2023-07-28T01:25:12;10.13;;;9.05;;
13698;SDS011;6921;53.642;9.956;2023-07-28T01:27:25;10.13;;;9.05;;
13698;SDS011;6921;53.642;9.956;2023-07-28T01:29:29;11.85;;;9.20;;
13698;SDS011;6921;53.642;9.956;2023-07-28T01:31:32;10.27;;;9.23;;
13698;SDS011;6921;53.642;9.956;2023-07-28T01:33:36;9.98;;;8.98;;
13698;SDS011;6921;53.642;9.956;2023-07-28T01:35:39;10.32;;;9.05;;
13698;SDS011;6921;53.642;9.956;2023-07-28T01:37:42;14.38;;;10.35;;
13698;SDS011;6921;53.642;9.956;2023-07-28T01:39:46;10.60;;;9.23;;
13698;SDS011;6921;53.642;9.956;2023-07-28T01:41:49;11.00;;;9.90;;
13698;SDS011;6921;53.642;9.956;2023-07-28T01:43:54;11.00;;;9.90;;
13698;SDS011;6921;53.642;9.956;2023-07-28T01:45:57;10.77;;;9.68;;
13698;SDS011;6921;53.642;9.956;2023-07-28T01:48:00;11.63;;;9.77;;
13698;SDS011;6921;53.642;9.956;2023-07-28T01:50:03;10.80;;;9.73;;
13698;SDS011;6921;53.642;9.956;2023-07-28T01:52:07;11.32;;;10.15;;
13698;SDS011;6921;53.642;9.956;2023-07-28T01:54:10;12.10;;;10.43;;
13698;SDS011;6921;53.642;9.956;2023-07-28T01:56:13;11.95;;;10.07;;
13698;SDS011;6921;53.642;9.956;2023-07-28T01:58:16;11.70;;;10.13;;
13698;SDS011;6921;53.642;9.956;2023-07-28T02:00:21;11.25;;;10.15;;
13698;SDS011;6921;53.642;9.956;2023-07-28T02:02:23;10.68;;;9.48;;
13698;SDS011;6921;53.642;9.956;2023-07-28T02:04:26;12.15;;;10.25;;
13698;SDS011;6921;53.642;9.956;2023-07-28T02:06:29;11.50;;;10.20;;
13698;SDS011;6921;53.642;9.956;2023-07-28T02:08:32;12.27;;;10.40;;
13698;SDS011;6921;53.642;9.956;2023-07-28T02:10:36;11.65;;;10.00;;
13698;SDS011;6921;53.642;9.956;2023-07-28T02:12:39;11.20;;;10.00;;
13698;SDS011;6921;53.642;9.956;2023-07-28T02:14:42;11.20;;;10.02;;
13698;SDS011;6921;53.642;9.956;2023-07-28T02:16:46;11.18;;;9.93;;
13698;SDS011;6921;53.642;9.956;2023-07-28T02:18:49;12.70;;;10.68;;
13698;SDS011;6921;53.642;9.956;2023-07-28T02:20:52;12.85;;;10.50;;
13698;SDS011;6921;53.642;9.956;2023-07-28T02:22:55;11.43;;;9.82;;
13698;SDS011;6921;53.642;9.956;2023-07-28T02:24:59;10.57;;;9.35;;
13698;SDS011;6921;53.642;9.956;2023-07-28T02:27:03;11.25;;;10.05;;
13698;SDS011;6921;53.642;9.956;2023-07-28T02:29:07;10.65;;;9.50;;
13698;SDS011;6921;53.642;9.956;2023-07-28T02:31:10;10.95;;;9.85;;
13698;SDS011;6921;53.642;9.956;2023-07-28T02:33:14;12.50;;;10.68;;
13698;SDS011;6921;53.642;9.956;2023-07-28T02:35:17;12.57;;;10.00;;
13698;SDS011;6921;53.642;9.956;2023-07-28T02:37:21;12.77;;;10.35;;
13698;SDS011;6921;53.642;9.956;2023-07-28T02:39:24;11.60;;;9.77;;
13698;SDS011;6921;53.642;9.956;2023-07-28T02:41:27;10.75;;;9.65;;
13698;SDS011;6921;53.642;9.956;2023-07-28T02:43:31;10.10;;;9.07;;
13698;SDS011;6921;53.642;9.956;2023-07-28T02:45:34;13.23;;;9.75;;
13698;SDS011;6921;53.642;9.956;2023-07-28T02:47:37;11.27;;;9.32;;
13698;SDS011;6921;53.642;9.956;2023-07-28T02:49:41;10.15;;;9.15;;
13698;SDS011;6921;53.642;9.956;2023-07-28T02:51:45;9.35;;;8.23;;
13698;SDS011;6921;53.642;9.956;2023-07-28T02:53:47;8.55;;;7.55;;
13698;SDS011;6921;53.642;9.956;2023-07-28T02:55:50;9.07;;;8.07;;
13698;SDS011;6921;53.642;9.956;2023-07-28T02:57:53;8.65;;;7.63;;
13698;SDS011;6921;53.642;9.956;2023-07-28T02:59:56;9.35;;;7.97;;
13698;SDS011;6921;53.642;9.956;2023-07-28T03:01:59;10.20;;;8.68;;
13698;SDS011;6921;53.642;9.956;2023-07-28T03:04:03;8.73;;;7.72;;
13698;SDS011;6921;53.642;9.956;2023-07-28T03:06:07;8.85;;;7.20;;
13698;SDS011;6921;53.642;9.956;2023-07-28T03:08:10;8.27;;;7.47;;
13698;SDS011;6921;53.642;9.956;2023-07-28T03:10:13;9.25;;;7.82;;
13698;SDS011;6921;53.642;9.956;2023-07-28T03:12:17;9.25;;;7.82;;
13698;SDS011;6921;53.642;9.956;2023-07-28T03:14:20;8.52;;;7.25;;
13698;SDS011;6921;53.642;9.956;2023-07-28T03:16:24;8.63;;;7.72;;
13698;SDS011;6921;53.642;9.956;2023-07-28T03:18:27;8.45;;;7.63;;
13698;SDS011;6921;53.642;9.956;2023-07-28T03:20:30;9.35;;;7.32;;
13698;SDS011;6921;53.642;9.956;2023-07-28T03:22:34;8.30;;;7.38;;
13698;SDS011;6921;53.642;9.956;2023-07-28T03:24:37;8.52;;;7.63;;
13698;SDS011;6921;53.642;9.956;2023-07-28T03:26:40;7.93;;;7.13;;
13698;SDS011;6921;53.642;9.956;2023-07-28T03:28:44;8.05;;;7.25;;
13698;SDS011;6921;53.642;9.956;2023-07-28T03:30:47;7.07;;;6.38;;
13698;SDS011;6921;53.642;9.956;2023-07-28T03:32:50;7.38;;;6.68;;
13698;SDS011;6921;53.642;9.956;2023-07-28T03:34:54;7.82;;;7.03;;
13698;SDS011;6921;53.642;9.956;2023-07-28T03:36:57;7.40;;;6.70;;
13698;SDS011;6921;53.642;9.956;2023-07-28T03:39:02;7.18;;;6.47;;
13698;SDS011;6921;53.642;9.956;2023-07-28T03:41:05;8.38;;;6.80;;
13698;SDS011;6921;53.642;9.956;2023-07-28T03:43:08;6.85;;;6.22;;
13698;SDS011;6921;53.642;9.956;2023-07-28T03:45:12;7.18;;;6.40;;
13698;SDS011;6921;53.642;9.956;2023-07-28T03:47:15;6.90;;;6.22;;
13698;SDS011;6921;53.642;9.956;2023-07-28T03:49:18;7.75;;;6.93;;
13698;SDS011;6921;53.642;9.956;2023-07-28T03:51:21;7.43;;;6.50;;
13698;SDS011;6921;53.642;9.956;2023-07-28T03:53:24;7.60;;;6.60;;
13698;SDS011;6921;53.642;9.956;2023-07-28T03:55:28;7.47;;;6.78;;
13698;SDS011;6921;53.642;9.956;2023-07-28T03:57:32;8.20;;;7.22;;
13698;SDS011;6921;53.642;9.956;2023-07-28T03:59:35;7.78;;;7.07;;
13698;SDS011;6921;53.642;9.956;2023-07-28T04:01:38;7.35;;;6.65;;
13698;SDS011;6921;53.642;9.956;2023-07-28T04:03:41;7.60;;;6.80;;
13698;SDS011;6921;53.642;9.956;2023-07-28T04:05:45;7.88;;;7.07;;
13698;SDS011;6921;53.642;9.956;2023-07-28T04:07:48;7.35;;;6.65;;
13698;SDS011;6921;53.642;9.956;2023-07-28T04:09:51;9.23;;;7.40;;
13698;SDS011;6921;53.642;9.956;2023-07-28T04:11:56;8.18;;;7.32;;
13698;SDS011;6921;53.642;9.956;2023-07-28T04:13:59;8.20;;;7.22;;
13698;SDS011;6921;53.642;9.956;2023-07-28T04:16:01;9.63;;;7.60;;
13698;SDS011;6921;53.642;9.956;2023-07-28T04:18:05;9.82;;;8.82;;
13698;SDS011;6921;53.642;9.956;2023-07-28T04:20:08;11.38;;;8.45;;
13698;SDS011;6921;53.642;9.956;2023-07-28T04:22:12;9.48;;;8.48;;
13698;SDS011;6921;53.642;9.956;2023-07-28T04:24:17;8.95;;;8.05;;
13698;SDS011;6921;53.642;9.956;2023-07-28T04:26:20;10.68;;;8.80;;
13698;SDS011;6921;53.642;9.956;2023-07-28T04:28:27;9.55;;;8.20;;
13698;SDS011;6921;53.642;9.956;2023-07-28T04:30:30;9.73;;;8.48;;
13698;SDS011;6921;53.642;9.956;2023-07-28T04:32:33;11.05;;;8.15;;
13698;SDS011;6921;53.642;9.956;2023-07-28T04:34:36;9.77;;;8.50;;
13698;SDS011;6921;53.642;9.956;2023-07-28T04:36:39;9.38;;;8.38;;
13698;SDS011;6921;53.642;9.956;2023-07-28T04:38:42;8.85;;;7.95;;
13698;SDS011;6921;53.642;9.956;2023-07-28T04:40:45;9.70;;;8.70;;
13698;SDS011;6921;53.642;9.956;2023-07-28T04:42:48;10.20;;;8.40;;
13698;SDS011;6921;53.642;9.956;2023-07-28T04:44:56;9.23;;;8.15;;
13698;SDS011;6921;53.642;9.956;2023-07-28T04:46:59;9.13;;;8.23;;
13698;SDS011;6921;53.642;9.956;2023-07-28T04:49:03;9.00;;;8.10;;
13698;SDS011;6921;53.642;9.956;2023-07-28T04:51:06;9.27;;;7.88;;
13698;SDS011;6921;53.642;9.956;2023-07-28T04:53:09;9.95;;;8.95;;
13698;SDS011;6921;53.642;9.956;2023-07-28T04:55:12;9.70;;;8.52;;
13698;SDS011;6921;53.642;9.956;2023-07-28T04:57:15;9.57;;;7.85;;
13698;SDS011;6921;53.642;9.956;2023-07-28T04:59:19;10.35;;;8.32;;
13698;SDS011;6921;53.642;9.956;2023-07-28T05:01:24;8.90;;;8.00;;
13698;SDS011;6921;53.642;9.956;2023-07-28T05:03:28;10.35;;;8.05;;
13698;SDS011;6921;53.642;9.956;2023-07-28T05:05:32;9.73;;;8.35;;
13698;SDS011;6921;53.642;9.956;2023-07-28T05:07:35;9.85;;;8.73;;
13698;SDS011;6921;53.642;9.956;2023-07-28T05:09:38;9.07;;;8.18;;
13698;SDS011;6921;53.642;9.956;2023-07-28T05:11:42;9.00;;;8.10;;
13698;SDS011;6921;53.642;9.956;2023-07-28T05:13:48;9.30;;;8.30;;
13698;SDS011;6921;53.642;9.956;2023-07-28T05:15:52;8.93;;;8.02;;
13698;SDS011;6921;53.642;9.956;2023-07-28T05:17:56;10.60;;;8.55;;
13698;SDS011;6921;53.642;9.956;2023-07-28T05:20:00;9.88;;;8.88;;
13698;SDS011;6921;53.642;9.956;2023-07-28T05:22:04;9.95;;;8.95;;
13698;SDS011;6921;53.642;9.956;2023-07-28T05:24:09;9.65;;;8.65;;
13698;SDS011;6921;53.642;9.956;2023-07-28T05:26:13;8.80;;;7.90;;
13698;SDS011;6921;53.642;9.956;2023-07-28T05:28:16;5.40;;;4.88;;
13698;SDS011;6921;53.642;9.956;2023-07-28T05:30:20;9.73;;;8.50;;
13698;SDS011;6921;53.642;9.956;2023-07-28T05:32:27;10.23;;;9.13;;
13698;SDS011;6921;53.642;9.956;2023-07-28T05:34:32;9.25;;;8.27;;
13698;SDS011;6921;53.642;9.956;2023-07-28T05:36:35;11.75;;;9.45;;
13698;SDS011;6921;53.642;9.956;2023-07-28T05:38:39;9.68;;;8.65;;
13698;SDS011;6921;53.642;9.956;2023-07-28T05:40:45;10.15;;;8.60;;
13698;SDS011;6921;53.642;9.956;2023-07-28T05:42:49;10.00;;;9.00;;
13698;SDS011;6921;53.642;9.956;2023-07-28T05:44:52;10.85;;;8.98;;
13698;SDS011;6921;53.642;9.956;2023-07-28T05:46:56;10.50;;;9.48;;
13698;SDS011;6921;53.642;9.956;2023-07-28T05:48:59;11.00;;;9.90;;
13698;SDS011;6921;53.642;9.956;2023-07-28T05:51:04;10.85;;;9.75;;
13698;SDS011;6921;53.642;9.956;2023-07-28T05:53:09;11.25;;;10.15;;
13698;SDS011;6921;53.642;9.956;2023-07-28T05:55:12;10.73;;;9.60;;
13698;SDS011;6921;53.642;9.956;2023-07-28T05:57:16;10.05;;;9.07;;
13698;SDS011;6921;53.642;9.956;2023-07-28T05:59:19;10.70;;;9.30;;
13698;SDS011;6921;53.642;9.956;2023-07-28T06:01:22;10.43;;;9.15;;
13698;SDS011;6921;53.642;9.956;2023-07-28T06:03:27;9.25;;;8.32;;
13698;SDS011;6921;53.642;9.956;2023-07-28T06:05:30;9.52;;;8.63;;
13698;SDS011;6921;53.642;9.956;2023-07-28T06:07:35;10.05;;;9.05;;
13698;SDS011;6921;53.642;9.956;2023-07-28T06:09:39;10.00;;;8.80;;
13698;SDS011;6921;53.642;9.956;2023-07-28T06:11:43;9.55;;;8.65;;
13698;SDS011;6921;53.642;9.956;2023-07-28T06:13:47;9.82;;;8.93;;
13698;SDS011;6921;53.642;9.956;2023-07-28T06:15:52;9.65;;;8.73;;
13698;SDS011;6921;53.642;9.956;2023-07-28T06:17:57;9.77;;;8.85;;
13698;SDS011;6921;53.642;9.956;2023-07-28T06:20:01;10.10;;;9.02;;
13698;SDS011;6921;53.642;9.956;2023-07-28T06:22:04;9.50;;;8.60;;
13698;SDS011;6921;53.642;9.956;2023-07-28T06:24:09;9.07;;;8.18;;
13698;SDS011;6921;53.642;9.956;2023-07-28T06:26:14;9.80;;;8.80;;
13698;SDS011;6921;53.642;9.956;2023-07-28T06:28:18;9.57;;;8.68;;
13698;SDS011;6921;53.642;9.956;2023-07-28T06:30:21;9.00;;;7.93;;
13698;SDS011;6921;53.642;9.956;2023-07-28T06:32:23;9.68;;;8.77;;
13698;SDS011;6921;53.642;9.956;2023-07-28T06:34:27;9.77;;;8.77;;
13698;SDS011;6921;53.642;9.956;2023-07-28T06:36:31;9.30;;;8.43;;
13698;SDS011;6921;53.642;9.956;2023-07-28T06:38:34;9.40;;;8.02;;
13698;SDS011;6921;53.642;9.956;2023-07-28T06:40:39;8.48;;;7.63;;
13698;SDS011;6921;53.642;9.956;2023-07-28T06:42:45;8.05;;;7.30;;
13698;SDS011;6921;53.642;9.956;2023-07-28T06:44:48;9.27;;;8.32;;
13698;SDS011;6921;53.642;9.956;2023-07-28T06:46:52;9.23;;;8.32;;
13698;SDS011;6921;53.642;9.956;2023-07-28T06:48:56;8.82;;;8.02;;
13698;SDS011;6921;53.642;9.956;2023-07-28T06:50:59;9.30;;;8.43;;
13698;SDS011;6921;53.642;9.956;2023-07-28T06:53:02;9.65;;;8.60;;
13698;SDS011;6921;53.642;9.956;2023-07-28T06:55:05;10.05;;;9.02;;
13698;SDS011;6921;53.642;9.956;2023-07-28T06:57:12;9.70;;;8.80;;
13698;SDS011;6921;53.642;9.956;2023-07-28T06:59:16;8.98;;;8.18;;
13698;SDS011;6921;53.642;9.956;2023-07-28T07:01:22;9.60;;;8.25;;
13698;SDS011;6921;53.642;9.956;2023-07-28T07:03:26;9.18;;;8.30;;
13698;SDS011;6921;53.642;9.956;2023-07-28T07:05:29;9.73;;;8.55;;
13698;SDS011;6921;53.642;9.956;2023-07-28T07:07:33;8.48;;;7.68;;
13698;SDS011;6921;53.642;9.956;2023-07-28T07:09:37;8.55;;;7.80;;
13698;SDS011;6921;53.642;9.956;2023-07-28T07:11:40;7.93;;;7.22;;
13698;SDS011;6921;53.642;9.956;2023-07-28T07:13:45;8.10;;;7.30;;
13698;SDS011;6921;53.642;9.956;2023-07-28T07:15:47;7.38;;;6.68;;
13698;SDS011;6921;53.642;9.956;2023-07-28T07:17:50;8.27;;;7.47;;
13698;SDS011;6921;53.642;9.956;2023-07-28T07:19:56;7.85;;;7.15;;
13698;SDS011;6921;53.642;9.956;2023-07-28T07:21:59;6.97;;;6.47;;
13698;SDS011;6921;53.642;9.956;2023-07-28T07:24:03;6.47;;;5.93;;
13698;SDS011;6921;53.642;9.956;2023-07-28T07:26:07;6.10;;;5.50;;
13698;SDS011;6921;53.642;9.956;2023-07-28T07:28:11;5.63;;;5.13;;
13698;SDS011;6921;53.642;9.956;2023-07-28T07:30:18;5.18;;;4.68;;
13698;SDS011;6921;53.642;9.956;2023-07-28T07:32:21;5.40;;;4.95;;
13698;SDS011;6921;53.642;9.956;2023-07-28T07:34:25;5.60;;;5.10;;
13698;SDS011;6921;53.642;9.956;2023-07-28T07:36:28;5.15;;;4.75;;
13698;SDS011;6921;53.642;9.956;2023-07-28T07:38:32;5.30;;;4.90;;
13698;SDS011;6921;53.642;9.956;2023-07-28T07:40:35;4.90;;;4.50;;
13698;SDS011;6921;53.642;9.956;2023-07-28T07:42:42;4.80;;;4.38;;
13698;SDS011;6921;53.642;9.956;2023-07-28T07:44:46;4.78;;;4.38;;
13698;SDS011;6921;53.642;9.956;2023-07-28T07:46:51;5.00;;;4.60;;
13698;SDS011;6921;53.642;9.956;2023-07-28T07:48:53;4.68;;;4.28;;
13698;SDS011;6921;53.642;9.956;2023-07-28T07:50:57;5.35;;;4.82;;
13698;SDS011;6921;53.642;9.956;2023-07-28T07:53:00;5.07;;;4.68;;
13698;SDS011;6921;53.642;9.956;2023-07-28T07:55:03;4.68;;;4.28;;
13698;SDS011;6921;53.642;9.956;2023-07-28T07:57:07;4.80;;;4.40;;
13698;SDS011;6921;53.642;9.956;2023-07-28T07:59:10;4.55;;;4.15;;
13698;SDS011;6921;53.642;9.956;2023-07-28T08:01:13;5.10;;;4.70;;
13698;SDS011;6921;53.642;9.956;2023-07-28T08:03:18;4.60;;;4.30;;
13698;SDS011;6921;53.642;9.956;2023-07-28T08:05:21;4.97;;;4.57;;
13698;SDS011;6921;53.642;9.956;2023-07-28T08:07:25;5.38;;;4.78;;
13698;SDS011;6921;53.642;9.956;2023-07-28T08:09:28;5.07;;;4.68;;
13698;SDS011;6921;53.642;9.956;2023-07-28T08:11:32;5.38;;;4.95;;
13698;SDS011;6921;53.642;9.956;2023-07-28T08:13:35;5.60;;;5.10;;
13698;SDS011;6921;53.642;9.956;2023-07-28T08:15:37;5.95;;;5.45;;
13698;SDS011;6921;53.642;9.956;2023-07-28T08:17:40;5.20;;;4.70;;
13698;SDS011;6921;53.642;9.956;2023-07-28T08:19:45;5.13;;;4.63;;
13698;SDS011;6921;53.642;9.956;2023-07-28T08:21:48;5.78;;;5.20;;
13698;SDS011;6921;53.642;9.956;2023-07-28T08:23:51;4.97;;;4.65;;
13698;SDS011;6921;53.642;9.956;2023-07-28T08:25:55;4.78;;;4.35;;
13698;SDS011;6921;53.642;9.956;2023-07-28T08:27:59;5.10;;;4.70;;
13698;SDS011;6921;53.642;9.956;2023-07-28T08:30:03;5.10;;;4.70;;
13698;SDS011;6921;53.642;9.956;2023-07-28T08:32:09;5.10;;;4.70;;
13698;SDS011;6921;53.642;9.956;2023-07-28T08:34:12;5.05;;;4.65;;
13698;SDS011;6921;53.642;9.956;2023-07-28T08:36:18;4.80;;;4.40;;
13698;SDS011;6921;53.642;9.956;2023-07-28T08:38:22;5.30;;;4.80;;
13698;SDS011;6921;53.642;9.956;2023-07-28T08:40:25;5.03;;;4.53;;
13698;SDS011;6921;53.642;9.956;2023-07-28T08:42:30;4.65;;;4.35;;
13698;SDS011;6921;53.642;9.956;2023-07-28T08:44:33;4.50;;;4.10;;
13698;SDS011;6921;53.642;9.956;2023-07-28T08:46:37;4.25;;;3.95;;
13698;SDS011;6921;53.642;9.956;2023-07-28T08:48:40;4.43;;;4.13;;
13698;SDS011;6921;53.642;9.956;2023-07-28T08:50:43;4.90;;;4.50;;
13698;SDS011;6921;53.642;9.956;2023-07-28T08:52:48;4.43;;;4.03;;
13698;SDS011;6921;53.642;9.956;2023-07-28T08:54:51;3.90;;;3.60;;
13698;SDS011;6921;53.642;9.956;2023-07-28T08:56:54;4.15;;;3.78;;
13698;SDS011;6921;53.642;9.956;2023-07-28T08:58:57;3.30;;;2.97;;
13698;SDS011;6921;53.642;9.956;2023-07-28T09:01:01;3.42;;;3.20;;
13698;SDS011;6921;53.642;9.956;2023-07-28T09:03:08;4.65;;;4.22;;
13698;SDS011;6921;53.642;9.956;2023-07-28T09:05:16;4.10;;;3.72;;
13698;SDS011;6921;53.642;9.956;2023-07-28T09:07:21;4.10;;;3.80;;
13698;SDS011;6921;53.642;9.956;2023-07-28T09:09:25;3.58;;;3.38;;
13698;SDS011;6921;53.642;9.956;2023-07-28T09:11:43;3.60;;;3.30;;
13698;SDS011;6921;53.642;9.956;2023-07-28T09:13:48;3.85;;;3.55;;
13698;SDS011;6921;53.642;9.956;2023-07-28T09:15:53;3.70;;;3.40;;
13698;SDS011;6921;53.642;9.956;2023-07-28T09:17:56;3.75;;;3.30;;
13698;SDS011;6921;53.642;9.956;2023-07-28T09:20:03;3.30;;;3.10;;
13698;SDS011;6921;53.642;9.956;2023-07-28T09:22:07;4.53;;;4.10;;
13698;SDS011;6921;53.642;9.956;2023-07-28T09:24:12;4.00;;;3.70;;
13698;SDS011;6921;53.642;9.956;2023-07-28T09:26:18;4.15;;;3.80;;
13698;SDS011;6921;53.642;9.956;2023-07-28T09:28:21;4.03;;;3.72;;
13698;SDS011;6921;53.642;9.956;2023-07-28T09:30:25;3.78;;;3.47;;
13698;SDS011;6921;53.642;9.956;2023-07-28T09:32:29;4.20;;;3.90;;
13698;SDS011;6921;53.642;9.956;2023-07-28T09:34:38;4.10;;;3.80;;
13698;SDS011;6921;53.642;9.956;2023-07-28T09:36:41;3.95;;;3.63;;
13698;SDS011;6921;53.642;9.956;2023-07-28T09:38:45;4.13;;;3.72;;
13698;SDS011;6921;53.642;9.956;2023-07-28T09:40:51;3.88;;;3.58;;
13698;SDS011;6921;53.642;9.956;2023-07-28T09:42:57;3.70;;;3.40;;
13698;SDS011;6921;53.642;9.956;2023-07-28T09:45:00;6.13;;;3.58;;
13698;SDS011;6921;53.642;9.956;2023-07-28T09:47:05;3.65;;;3.38;;
13698;SDS011;6921;53.642;9.956;2023-07-28T09:49:09;3.85;;;3.55;;
13698;SDS011;6921;53.642;9.956;2023-07-28T09:51:17;4.30;;;4.00;;
13698;SDS011;6921;53.642;9.956;2023-07-28T09:53:23;4.15;;;3.85;;
13698;SDS011;6921;53.642;9.956;2023-07-28T09:55:30;3.97;;;3.67;;
13698;SDS011;6921;53.642;9.956;2023-07-28T09:57:34;4.05;;;3.75;;
13698;SDS011;6921;53.642;9.956;2023-07-28T09:59:42;3.40;;;3.13;;
13698;SDS011;6921;53.642;9.956;2023-07-28T10:01:49;3.80;;;3.50;;
13698;SDS011;6921;53.642;9.956;2023-07-28T10:03:52;3.30;;;3.10;;
13698;SDS011;6921;53.642;9.956;2023-07-28T10:05:55;3.30;;;3.00;;
13698;SDS011;6921;53.642;9.956;2023-07-28T10:07:59;3.85;;;3.50;;
13698;SDS011;6921;53.642;9.956;2023-07-28T10:10:05;3.30;;;3.10;;
13698;SDS011;6921;53.642;9.956;2023-07-28T10:12:17;3.53;;;3.22;;
13698;SDS011;6921;53.642;9.956;2023-07-28T10:14:26;3.38;;;3.17;;
13698;SDS011;6921;53.642;9.956;2023-07-28T10:16:38;5.20;;;4.57;;
13698;SDS011;6921;53.642;9.956;2023-07-28T10:18:46;4.57;;;4.18;;
13698;SDS011;6921;53.642;9.956;2023-07-28T10:20:55;3.53;;;3.22;;
13698;SDS011;6921;53.642;9.956;2023-07-28T10:23:11;3.30;;;3.10;;
13698;SDS011;6921;53.642;9.956;2023-07-28T10:25:21;3.22;;;3.00;;
13698;SDS011;6921;53.642;9.956;2023-07-28T10:27:28;3.38;;;3.17;;
13698;SDS011;6921;53.642;9.956;2023-07-28T10:29:36;3.30;;;3.10;;
13698;SDS011;6921;53.642;9.956;2023-07-28T10:31:50;3.05;;;2.85;;
13698;SDS011;6921;53.642;9.956;2023-07-28T10:33:54;3.15;;;2.95;;
13698;SDS011;6921;53.642;9.956;2023-07-28T10:35:57;2.85;;;2.65;;
13698;SDS011;6921;53.642;9.956;2023-07-28T10:40:33;3.25;;;3.03;;
13698;SDS011;6921;53.642;9.956;2023-07-28T10:42:37;3.45;;;3.25;;
13698;SDS011;6921;53.642;9.956;2023-07-28T10:44:40;3.15;;;2.95;;
13698;SDS011;6921;53.642;9.956;2023-07-28T10:46:43;3.00;;;2.80;;
13698;SDS011;6921;53.642;9.956;2023-07-28T10:48:48;3.00;;;2.80;;
13698;SDS011;6921;53.642;9.956;2023-07-28T10:50:52;3.72;;;3.42;;
13698;SDS011;6921;53.642;9.956;2023-07-28T10:52:55;3.72;;;3.42;;
13698;SDS011;6921;53.642;9.956;2023-07-28T10:54:58;3.88;;;3.58;;
13698;SDS011;6921;53.642;9.956;2023-07-28T10:57:02;3.38;;;3.17;;
13698;SDS011;6921;53.642;9.956;2023-07-28T10:59:06;3.60;;;3.38;;
13698;SDS011;6921;53.642;9.956;2023-07-28T11:01:09;3.70;;;3.35;;
13698;SDS011;6921;53.642;9.956;2023-07-28T11:03:13;3.70;;;3.40;;
13698;SDS011;6921;53.642;9.956;2023-07-28T11:05:20;3.53;;;3.25;;
13698;SDS011;6921;53.642;9.956;2023-07-28T11:07:24;3.42;;;3.15;;
13698;SDS011;6921;53.642;9.956;2023-07-28T11:09:28;3.40;;;3.20;;
13698;SDS011;6921;53.642;9.956;2023-07-28T11:11:31;3.47;;;3.28;;
13698;SDS011;6921;53.642;9.956;2023-07-28T11:13:36;3.20;;;2.95;;
13698;SDS011;6921;53.642;9.956;2023-07-28T11:15:41;3.65;;;3.35;;
13698;SDS011;6921;53.642;9.956;2023-07-28T11:17:45;3.05;;;2.85;;
13698;SDS011;6921;53.642;9.956;2023-07-28T11:19:50;3.75;;;3.40;;
13698;SDS011;6921;53.642;9.956;2023-07-28T11:21:54;3.47;;;3.22;;
13698;SDS011;6921;53.642;9.956;2023-07-28T11:23:59;3.30;;;3.00;;
13698;SDS011;6921;53.642;9.956;2023-07-28T11:26:02;3.10;;;2.90;;
13698;SDS011;6921;53.642;9.956;2023-07-28T11:28:08;2.78;;;2.58;;
13698;SDS011;6921;53.642;9.956;2023-07-28T11:30:13;3.40;;;2.97;;
13698;SDS011;6921;53.642;9.956;2023-07-28T11:32:17;3.10;;;2.90;;
13698;SDS011;6921;53.642;9.956;2023-07-28T11:34:20;2.97;;;2.78;;
13698;SDS011;6921;53.642;9.956;2023-07-28T11:36:23;2.78;;;2.58;;
13698;SDS011;6921;53.642;9.956;2023-07-28T11:38:28;2.78;;;2.58;;
13698;SDS011;6921;53.642;9.956;2023-07-28T11:40:32;2.80;;;2.60;;
13698;SDS011;6921;53.642;9.956;2023-07-28T11:42:36;2.97;;;2.78;;
13698;SDS011;6921;53.642;9.956;2023-07-28T11:44:40;2.90;;;2.70;;
13698;SDS011;6921;53.642;9.956;2023-07-28T11:46:44;2.85;;;2.58;;
13698;SDS011;6921;53.642;9.956;2023-07-28T11:48:47;3.10;;;2.90;;
13698;SDS011;6921;53.642;9.956;2023-07-28T11:50:50;3.13;;;2.92;;
13698;SDS011;6921;53.642;9.956;2023-07-28T11:52:54;3.20;;;3.00;;
13698;SDS011;6921;53.642;9.956;2023-07-28T11:55:00;3.25;;;2.95;;
13698;SDS011;6921;53.642;9.956;2023-07-28T11:57:04;3.40;;;3.20;;
13698;SDS011;6921;53.642;9.956;2023-07-28T11:59:10;3.25;;;3.05;;
13698;SDS011;6921;53.642;9.956;2023-07-28T12:01:14;3.30;;;3.00;;
13698;SDS011;6921;53.642;9.956;2023-07-28T12:03:17;3.22;;;3.03;;
13698;SDS011;6921;53.642;9.956;2023-07-28T12:05:21;3.05;;;2.80;;
13698;SDS011;6921;53.642;9.956;2023-07-28T12:07:28;3.03;;;2.83;;
13698;SDS011;6921;53.642;9.956;2023-07-28T12:09:32;3.20;;;2.70;;
13698;SDS011;6921;53.642;9.956;2023-07-28T12:11:37;3.65;;;3.35;;
13698;SDS011;6921;53.642;9.956;2023-07-28T12:13:48;2.83;;;2.63;;
13698;SDS011;6921;53.642;9.956;2023-07-28T12:15:55;3.35;;;2.85;;
13698;SDS011;6921;53.642;9.956;2023-07-28T12:18:17;2.67;;;2.47;;
13698;SDS011;6921;53.642;9.956;2023-07-28T12:20:23;2.75;;;2.55;;
13698;SDS011;6921;53.642;9.956;2023-07-28T12:22:26;2.95;;;2.75;;
13698;SDS011;6921;53.642;9.956;2023-07-28T12:24:29;3.03;;;2.70;;
13698;SDS011;6921;53.642;9.956;2023-07-28T12:26:32;2.80;;;2.60;;
13698;SDS011;6921;53.642;9.956;2023-07-28T12:28:40;2.85;;;2.15;;
13698;SDS011;6921;53.642;9.956;2023-07-28T12:30:45;2.63;;;2.45;;
13698;SDS011;6921;53.642;9.956;2023-07-28T12:32:50;2.60;;;2.40;;
13698;SDS011;6921;53.642;9.956;2023-07-28T12:34:56;2.33;;;2.22;;
13698;SDS011;6921;53.642;9.956;2023-07-28T12:36:59;2.30;;;2.20;;
13698;SDS011;6921;53.642;9.956;2023-07-28T12:39:03;2.63;;;2.40;;